No particular awareness of the weather is required.    There are no Weather-warnings


Meteo18 Weather Cam more information Meteo18 Weather Cam


Thunder radar more information blitzortung!


Rain radar more information rain snow radar


Visit our other weather sites:

Template documentation
and downloads

And another site



Weather Underground History page Text

Daily Summary for September 11, 2017 Units:  English    Metric   Both
« Previous Day
Next Day »
Daily Weekly Monthly Yearly Custom
  High: Low: Average:
Temperature: 64 °F 54.9 °F 58.3 °F
Dew Point: 55.4 °F 46.4 °F 50.7 °F
Humidity: 95 % 53 % 77 %
Wind Speed: 22 mph 2 mph 7.5 mph
Wind Gust: 26 mph - -
Wind:- - WSW
Pressure: 29.8 in 29.7 in -
Precipitation: 0.08 in    
Historical Graphs
 
 
Tabular Data for September 11, 2017
Time Temperature Dew Point Pressure Wind Wind Speed Wind Gust Humidity Rainfall Rate (Hourly)
00:02 60.3 °F 51.3 °F 29.7 in SW 9 mph 15 mph 72 % 0 in
00:12 60.4 °F 51.4 °F 29.7 in SW 6 mph 18 mph 72 % 0 in
00:17 60.4 °F 51.4 °F 29.7 in SSW 9 mph 18 mph 72 % 0 in
00:22 60.3 °F 51.6 °F 29.7 in SW 10 mph 18 mph 73 % 0 in
00:32 59.2 °F 52.3 °F 29.7 in SW 13 mph 18 mph 78 % 0 in
00:37 58.5 °F 52.7 °F 29.7 in SW 7 mph 19 mph 81 % 0 in
00:42 57.9 °F 52.7 °F 29.7 in SW 6 mph 19 mph 83 % 0 in
00:52 57 °F 52.9 °F 29.7 in South 2 mph 12 mph 86 % 0 in
00:57 57 °F 52.9 °F 29.7 in SW 3 mph 10 mph 86 % 0 in
01:02 57.2 °F 53.1 °F 29.7 in SW 6 mph 7 mph 86 % 0 in
01:12 57.7 °F 52.7 °F 29.7 in SSW 4 mph 9 mph 83 % 0 in
01:17 58.1 °F 52.7 °F 29.7 in SSW 5 mph 10 mph 82 % 0 in
01:22 58.5 °F 52.7 °F 29.7 in SW 3 mph 11 mph 81 % 0 in
01:32 58.6 °F 52.9 °F 29.7 in WSW 5 mph 21 mph 81 % 0 in
01:37 58.5 °F 52.7 °F 29.7 in SW 11 mph 21 mph 81 % 0 in
01:42 58.3 °F 52.9 °F 29.7 in SW 12 mph 21 mph 82 % 0 in
01:47 58.3 °F 52.9 °F 29.7 in WSW 9 mph 18 mph 82 % 0 in
01:52 57.9 °F 52.7 °F 29.7 in SW 13 mph 18 mph 83 % 0 in
01:57 57.6 °F 53.1 °F 29.7 in SW 8 mph 16 mph 85 % 0 in
02:02 56.8 °F 53.1 °F 29.7 in WSW 8 mph 15 mph 87 % 0 in
02:07 56.5 °F 53.2 °F 29.7 in WSW 12 mph 17 mph 89 % 0.02 in
02:12 56.1 °F 53.2 °F 29.7 in SSW 5 mph 17 mph 90 % 0.02 in
02:17 55.8 °F 53.2 °F 29.7 in SW 7 mph 17 mph 91 % 0.02 in
02:22 55.8 °F 53.4 °F 29.7 in SW 6 mph 14 mph 92 % 0.02 in
02:27 55.6 °F 53.2 °F 29.7 in SSW 3 mph 14 mph 92 % 0.02 in
02:32 55.4 °F 53.4 °F 29.7 in SW 6 mph 12 mph 93 % 0.03 in
02:37 55.4 °F 53.4 °F 29.7 in WSW 6 mph 12 mph 93 % 0.03 in
02:42 55.2 °F 53.6 °F 29.7 in SW 5 mph 14 mph 94 % 0.03 in
02:47 55.2 °F 53.6 °F 29.7 in SSW 6 mph 14 mph 94 % 0.04 in
02:52 55.2 °F 53.6 °F 29.7 in WSW 5 mph 14 mph 94 % 0.04 in
02:57 55.2 °F 53.6 °F 29.7 in SSW 9 mph 13 mph 94 % 0.04 in
03:02 55.2 °F 53.8 °F 29.7 in SW 6 mph 13 mph 95 % 0.04 in
03:12 55.6 °F 54.1 °F 29.7 in SW 6 mph 13 mph 95 % 0.02 in
03:17 55.8 °F 54.3 °F 29.7 in SW 8 mph 13 mph 95 % 0.02 in
03:22 55.9 °F 54.5 °F 29.7 in SW 7 mph 14 mph 95 % 0.02 in
03:27 56.3 °F 54.9 °F 29.7 in SW 3 mph 14 mph 95 % 0.02 in
03:32 56.5 °F 55 °F 29.7 in SW 6 mph 14 mph 95 % 0.02 in
03:42 56.7 °F 55.2 °F 29.7 in SW 7 mph 13 mph 95 % 0.02 in
03:47 56.7 °F 55.2 °F 29.7 in West 2 mph 11 mph 95 % 0.01 in
03:52 56.8 °F 55.4 °F 29.7 in WSW 7 mph 11 mph 95 % 0.01 in
03:57 56.8 °F 55.4 °F 29.7 in WSW 2 mph 11 mph 95 % 0 in
04:02 57 °F 55.2 °F 29.7 in WSW 7 mph 11 mph 94 % 0 in
04:12 57.2 °F 55.2 °F 29.7 in WSW 6 mph 17 mph 93 % 0 in
04:17 57.2 °F 55.2 °F 29.7 in WSW 4 mph 15 mph 93 % 0 in
04:22 57.2 °F 55.2 °F 29.7 in West 6 mph 13 mph 93 % 0 in
04:32 57.2 °F 55.2 °F 29.7 in WSW 4 mph 11 mph 93 % 0.01 in
04:37 57.2 °F 55.2 °F 29.7 in West 4 mph 10 mph 93 % 0.01 in
04:42 57 °F 55 °F 29.7 in WSW 8 mph 11 mph 93 % 0.01 in
04:47 56.8 °F 54.9 °F 29.7 in WNW 5 mph 11 mph 93 % 0.02 in
04:52 56.7 °F 54.7 °F 29.7 in West 7 mph 11 mph 93 % 0.02 in
04:57 56.5 °F 54 °F 29.7 in West 5 mph 13 mph 91 % 0.03 in
05:02 56.5 °F 53.6 °F 29.7 in West 5 mph 13 mph 90 % 0.03 in
05:07 56.7 °F 53.8 °F 29.7 in West 8 mph 14 mph 90 % 0.03 in
05:22 56.5 °F 54 °F 29.7 in West 5 mph 11 mph 91 % 0.03 in
05:32 56.1 °F 53.8 °F 29.7 in WSW 5 mph 13 mph 92 % 0.03 in
05:37 55.9 °F 53.6 °F 29.7 in West 5 mph 13 mph 92 % 0.02 in
05:42 55.9 °F 53.6 °F 29.7 in SW 12 mph 13 mph 92 % 0.02 in
05:47 55.8 °F 53.4 °F 29.7 in WSW 8 mph 12 mph 92 % 0.02 in
05:52 55.8 °F 53.4 °F 29.7 in SW 4 mph 12 mph 92 % 0.02 in
05:57 55.6 °F 53.2 °F 29.7 in SW 6 mph 16 mph 92 % 0 in
06:02 55.6 °F 53.2 °F 29.7 in West 8 mph 16 mph 92 % 0 in
06:07 55.6 °F 53.1 °F 29.7 in WSW 4 mph 16 mph 91 % 0 in
06:12 55.6 °F 53.1 °F 29.7 in WSW 3 mph 16 mph 91 % 0 in
06:17 55.4 °F 53.1 °F 29.7 in WSW 9 mph 16 mph 92 % 0 in
06:22 55.4 °F 53.1 °F 29.7 in WSW 12 mph 14 mph 92 % 0 in
06:27 55.2 °F 52.9 °F 29.7 in SW 4 mph 14 mph 92 % 0 in
06:32 55.2 °F 52.9 °F 29.7 in SSW 9 mph 13 mph 92 % 0 in
06:37 55.2 °F 52.9 °F 29.7 in WSW 10 mph 13 mph 92 % 0 in
06:42 55.2 °F 52.9 °F 29.7 in WSW 6 mph 16 mph 92 % 0 in
06:47 55.2 °F 52.9 °F 29.7 in SW 12 mph 16 mph 92 % 0 in
06:52 55.2 °F 52.9 °F 29.7 in WSW 4 mph 16 mph 92 % 0 in
06:57 55.2 °F 52.9 °F 29.7 in WNW 6 mph 16 mph 92 % 0 in
07:02 55.2 °F 52.9 °F 29.7 in West 8 mph 15 mph 92 % 0 in
07:12 55.2 °F 52.9 °F 29.7 in SW 7 mph 13 mph 92 % 0 in
07:17 55 °F 53.1 °F 29.7 in SW 7 mph 15 mph 93 % 0 in
07:22 55 °F 53.1 °F 29.7 in West 3 mph 15 mph 93 % 0 in
07:27 55 °F 53.1 °F 29.7 in SW 7 mph 14 mph 93 % 0 in
07:32 55 °F 53.1 °F 29.7 in West 4 mph 14 mph 93 % 0 in
07:37 55 °F 53.1 °F 29.7 in West 4 mph 12 mph 93 % 0 in
07:42 55.2 °F 53.2 °F 29.7 in WSW 12 mph 12 mph 93 % 0 in
07:47 55.4 °F 52.9 °F 29.7 in West 8 mph 15 mph 91 % 0 in
07:52 55.4 °F 52.9 °F 29.7 in SW 5 mph 15 mph 91 % 0 in
07:57 55.2 °F 52.7 °F 29.7 in SW 7 mph 17 mph 91 % 0 in
08:02 55.2 °F 52.7 °F 29.7 in SW 6 mph 17 mph 91 % 0 in
08:12 55.2 °F 52.7 °F 29.7 in WSW 9 mph 13 mph 91 % 0 in
08:22 55.6 °F 53.1 °F 29.7 in WSW 4 mph 13 mph 91 % 0 in
08:32 55.6 °F 53.1 °F 29.7 in WSW 6 mph 12 mph 91 % 0 in
08:37 55.6 °F 53.1 °F 29.7 in West 7 mph 11 mph 91 % 0 in
08:42 55.6 °F 53.1 °F 29.7 in WSW 10 mph 11 mph 91 % 0 in
08:47 55.8 °F 53.2 °F 29.7 in WNW 7 mph 15 mph 91 % 0 in
08:57 55.8 °F 52.5 °F 29.7 in WSW 8 mph 16 mph 89 % 0 in
09:02 55.8 °F 52.5 °F 29.7 in WSW 9 mph 16 mph 89 % 0 in
09:12 55.9 °F 52.5 °F 29.7 in West 3 mph 17 mph 88 % 0 in
09:17 55.9 °F 52.5 °F 29.7 in West 8 mph 13 mph 88 % 0 in
09:27 56.1 °F 52.3 °F 29.7 in WSW 10 mph 13 mph 87 % 0 in
09:32 56.1 °F 52.3 °F 29.7 in WSW 9 mph 13 mph 87 % 0 in
09:42 56.8 °F 53.1 °F 29.7 in SW 6 mph 13 mph 87 % 0 in
09:47 57 °F 52.9 °F 29.7 in West 5 mph 11 mph 86 % 0 in
09:52 56.8 °F 52 °F 29.7 in West 10 mph 11 mph 84 % 0 in
09:57 56.8 °F 52 °F 29.7 in West 11 mph 15 mph 84 % 0 in
10:02 56.8 °F 52.3 °F 29.7 in West 7 mph 15 mph 85 % 0 in
10:12 57 °F 52 °F 29.7 in SW 7 mph 15 mph 83 % 0 in
10:17 57.2 °F 52.3 °F 29.7 in West 7 mph 15 mph 84 % 0 in
10:22 57.2 °F 52.3 °F 29.7 in WSW 4 mph 15 mph 84 % 0 in
10:27 57.7 °F 52.9 °F 29.7 in WSW 2 mph 15 mph 84 % 0 in
10:32 57.7 °F 52.7 °F 29.7 in West 7 mph 15 mph 83 % 0 in
10:37 57.6 °F 51.8 °F 29.7 in WSW 8 mph 14 mph 81 % 0 in
10:42 57.7 °F 51.6 °F 29.7 in WSW 12 mph 14 mph 80 % 0 in
10:47 57.9 °F 51.8 °F 29.7 in West 9 mph 18 mph 80 % 0 in
10:52 57.7 °F 50.9 °F 29.7 in WSW 11 mph 18 mph 78 % 0 in
11:02 58.8 °F 51.3 °F 29.7 in West 5 mph 16 mph 76 % 0 in
11:12 59.2 °F 50.2 °F 29.7 in West 8 mph 22 mph 72 % 0 in
11:17 59.4 °F 49.1 °F 29.7 in West 5 mph 22 mph 69 % 0 in
11:22 58.8 °F 49.8 °F 29.7 in West 11 mph 22 mph 72 % 0 in
11:32 59.4 °F 48.7 °F 29.7 in WNW 8 mph 20 mph 68 % 0 in
11:42 59.7 °F 50 °F 29.7 in West 4 mph 22 mph 70 % 0 in
11:47 59.4 °F 49.1 °F 29.7 in West 14 mph 22 mph 69 % 0 in
11:52 59.2 °F 49.8 °F 29.7 in West 14 mph 19 mph 71 % 0 in
11:57 59.7 °F 50.4 °F 29.7 in WSW 8 mph 20 mph 71 % 0 in
12:02 60.3 °F 50.4 °F 29.7 in WSW 12 mph 20 mph 70 % 0 in
12:07 60.6 °F 50.4 °F 29.7 in SW 7 mph 18 mph 69 % 0 in
12:12 60.6 °F 50 °F 29.7 in WSW 10 mph 18 mph 68 % 0 in
12:17 60.4 °F 49.1 °F 29.7 in West 9 mph 19 mph 66 % 0 in
12:22 60.3 °F 49.6 °F 29.7 in WSW 6 mph 20 mph 68 % 0 in
12:32 60.6 °F 48.7 °F 29.7 in WSW 19 mph 23 mph 65 % 0 in
12:37 60.1 °F 47.8 °F 29.7 in WSW 16 mph 23 mph 64 % 0 in
12:42 60.3 °F 48.4 °F 29.7 in WNW 9 mph 23 mph 65 % 0 in
12:47 60.6 °F 48.4 °F 29.7 in West 12 mph 23 mph 64 % 0 in
12:52 60.6 °F 50 °F 29.7 in WSW 8 mph 22 mph 68 % 0 in
12:57 60.6 °F 49.3 °F 29.7 in SW 10 mph 22 mph 66 % 0 in
13:02 60.8 °F 49.8 °F 29.7 in WSW 10 mph 18 mph 67 % 0 in
13:12 60.8 °F 48.6 °F 29.7 in WSW 10 mph 14 mph 64 % 0 in
13:17 61 °F 49.1 °F 29.7 in SW 12 mph 17 mph 65 % 0 in
13:22 60.6 °F 48.7 °F 29.7 in West 16 mph 17 mph 65 % 0 in
13:27 60.6 °F 48.7 °F 29.7 in SSW 14 mph 19 mph 65 % 0 in
13:32 61.5 °F 48.7 °F 29.7 in West 6 mph 19 mph 63 % 0 in
13:37 62.1 °F 48.9 °F 29.7 in SW 10 mph 21 mph 62 % 0 in
13:42 61.9 °F 48.7 °F 29.7 in West 9 mph 21 mph 62 % 0 in
13:52 61.9 °F 48.7 °F 29.7 in WSW 7 mph 17 mph 62 % 0 in
13:57 62.4 °F 48.7 °F 29.7 in SW 11 mph 15 mph 61 % 0 in
14:02 62.4 °F 47.8 °F 29.7 in West 8 mph 23 mph 59 % 0 in
14:07 62.1 °F 48.4 °F 29.7 in West 12 mph 23 mph 61 % 0 in
14:12 62.4 °F 48.7 °F 29.7 in SW 5 mph 23 mph 61 % 0 in
14:17 63 °F 47.5 °F 29.7 in SW 16 mph 23 mph 57 % 0 in
14:22 62.4 °F 47.5 °F 29.7 in WSW 11 mph 24 mph 58 % 0 in
14:32 62.6 °F 48.6 °F 29.7 in WNW 11 mph 24 mph 60 % 0 in
14:37 62.8 °F 48.2 °F 29.7 in WNW 13 mph 21 mph 59 % 0 in
14:42 62.8 °F 48.2 °F 29.7 in West 7 mph 19 mph 59 % 0 in
14:47 62.8 °F 47.8 °F 29.7 in West 12 mph 22 mph 58 % 0 in
14:52 63.5 °F 48 °F 29.7 in WSW 6 mph 22 mph 57 % 0 in
14:57 63.1 °F 47.1 °F 29.7 in SW 11 mph 22 mph 56 % 0 in
15:02 62.4 °F 47.5 °F 29.7 in WNW 14 mph 22 mph 58 % 0 in
15:12 62.1 °F 46.6 °F 29.7 in WNW 5 mph 22 mph 57 % 0 in
15:17 62.4 °F 47.5 °F 29.7 in WSW 8 mph 22 mph 58 % 0 in
15:22 63.1 °F 47.1 °F 29.7 in West 12 mph 22 mph 56 % 0 in
15:32 64 °F 47.1 °F 29.7 in WNW 22 mph 22 mph 54 % 0 in
15:42 63.9 °F 46.9 °F 29.7 in West 11 mph 26 mph 54 % 0 in
15:47 63.3 °F 46.9 °F 29.7 in West 6 mph 26 mph 55 % 0 in
15:52 64 °F 47.5 °F 29.7 in SW 5 mph 23 mph 55 % 0 in
15:57 64 °F 46.6 °F 29.7 in WSW 12 mph 23 mph 53 % 0 in
16:02 63.7 °F 47.7 °F 29.7 in WSW 7 mph 25 mph 56 % 0 in
16:07 63.3 °F 47.8 °F 29.7 in West 9 mph 25 mph 57 % 0 in
16:12 63.1 °F 47.7 °F 29.7 in West 7 mph 24 mph 57 % 0 in
16:22 63 °F 48.9 °F 29.7 in WNW 13 mph 19 mph 60 % 0 in
16:32 62.1 °F 47.5 °F 29.7 in WNW 20 mph 20 mph 59 % 0 in
16:37 61 °F 48.4 °F 29.8 in WSW 18 mph 22 mph 63 % 0 in
16:42 59.5 °F 49.8 °F 29.8 in West 13 mph 23 mph 70 % 0 in
16:47 59 °F 49.6 °F 29.7 in WSW 10 mph 23 mph 71 % 0 in
16:52 59.2 °F 49.5 °F 29.7 in West 11 mph 23 mph 70 % 0 in
17:02 59.7 °F 50.4 °F 29.7 in WSW 9 mph 14 mph 71 % 0 in
17:12 60.8 °F 50.2 °F 29.7 in SSW 5 mph 19 mph 68 % 0 in
17:17 61.3 °F 49.8 °F 29.7 in SW 13 mph 19 mph 66 % 0 in
17:22 61.9 °F 49.1 °F 29.7 in WSW 10 mph 17 mph 63 % 0 in
17:27 62.2 °F 48.2 °F 29.7 in WSW 7 mph 17 mph 60 % 0 in
17:32 62.4 °F 46.6 °F 29.7 in WSW 18 mph 20 mph 56 % 0 in
17:37 62.8 °F 46.4 °F 29.7 in WSW 9 mph 21 mph 55 % 0 in
17:42 62.8 °F 47.3 °F 29.7 in WSW 7 mph 23 mph 57 % 0 in
17:52 62.8 °F 47.8 °F 29.7 in WSW 6 mph 21 mph 58 % 0 in
17:57 62.2 °F 47.3 °F 29.7 in WSW 8 mph 21 mph 58 % 0 in
18:02 62.2 °F 47.7 °F 29.7 in West 9 mph 18 mph 59 % 0 in
18:07 62.2 °F 47.7 °F 29.7 in West 8 mph 18 mph 59 % 0 in
18:12 62.2 °F 47.7 °F 29.7 in WSW 13 mph 15 mph 59 % 0 in
18:17 62.2 °F 48.2 °F 29.7 in WSW 14 mph 15 mph 60 % 0 in
18:22 62.2 °F 48.2 °F 29.7 in WSW 8 mph 15 mph 60 % 0 in
18:32 61.5 °F 49.3 °F 29.8 in NW 12 mph 14 mph 64 % 0 in
18:37 59.7 °F 50 °F 29.8 in WNW 9 mph 19 mph 70 % 0 in
18:42 59.2 °F 49.8 °F 29.7 in West 4 mph 20 mph 71 % 0 in
18:47 59 °F 50 °F 29.7 in West 4 mph 20 mph 72 % 0 in
18:52 59.2 °F 50.9 °F 29.7 in WNW 8 mph 10 mph 74 % 0 in
18:57 59.5 °F 50.2 °F 29.7 in WSW 8 mph 13 mph 71 % 0 in
19:02 59.9 °F 50.5 °F 29.7 in WSW 8 mph 13 mph 71 % 0 in
19:12 60.1 °F 50.2 °F 29.7 in WSW 7 mph 12 mph 70 % 0 in
19:17 60.1 °F 50.2 °F 29.7 in SW 2 mph 12 mph 70 % 0 in
19:22 59.7 °F 50.4 °F 29.7 in WSW 6 mph 11 mph 71 % 0 in
19:27 59.7 °F 50.4 °F 29.7 in SW 6 mph 13 mph 71 % 0 in
19:32 59.7 °F 50 °F 29.7 in WSW 5 mph 14 mph 70 % 0 in
19:42 59.7 °F 47.5 °F 29.8 in WSW 6 mph 18 mph 64 % 0 in
19:47 59.4 °F 47.7 °F 29.8 in WSW 8 mph 18 mph 65 % 0 in
19:52 59.2 °F 46.9 °F 29.8 in WSW 6 mph 18 mph 64 % 0 in
20:02 59 °F 47.3 °F 29.8 in WSW 2 mph 14 mph 65 % 0 in
20:12 58.8 °F 47.1 °F 29.8 in WSW 5 mph 12 mph 65 % 0 in
20:17 58.6 °F 46.9 °F 29.8 in WSW 5 mph 12 mph 65 % 0 in
20:22 58.5 °F 47.1 °F 29.8 in SW 4 mph 12 mph 66 % 0 in
20:32 58.3 °F 47.3 °F 29.8 in SW 4 mph 10 mph 67 % 0 in
20:37 57.9 °F 47.5 °F 29.8 in SW 2 mph 8 mph 68 % 0 in
20:42 57.7 °F 47.3 °F 29.8 in SW 3 mph 8 mph 68 % 0 in
20:47 57.7 °F 47.3 °F 29.8 in WSW 5 mph 10 mph 68 % 0 in
20:52 57.7 °F 47.7 °F 29.8 in SW 6 mph 10 mph 69 % 0 in
20:57 57.9 °F 47.5 °F 29.8 in SW 6 mph 12 mph 68 % 0 in
21:02 57.9 °F 47.5 °F 29.8 in West 4 mph 13 mph 68 % 0 in
21:07 57.9 °F 47.5 °F 29.8 in SW 6 mph 13 mph 68 % 0 in
21:12 58.1 °F 46.8 °F 29.8 in WSW 7 mph 14 mph 66 % 0 in
21:17 58.3 °F 46.9 °F 29.8 in WSW 12 mph 20 mph 66 % 0 in
21:22 58.3 °F 46.9 °F 29.8 in WSW 8 mph 20 mph 66 % 0 in
21:27 58.1 °F 46.8 °F 29.8 in WNW 7 mph 20 mph 66 % 0 in
21:32 57.9 °F 46.9 °F 29.8 in West 8 mph 20 mph 67 % 0 in
21:37 57.9 °F 46.9 °F 29.8 in West 8 mph 20 mph 67 % 0 in
21:42 57.7 °F 47.3 °F 29.8 in West 5 mph 18 mph 68 % 0 in
21:47 57.6 °F 47.1 °F 29.8 in WSW 3 mph 18 mph 68 % 0 in
21:52 57.4 °F 47.3 °F 29.8 in SW 7 mph 18 mph 69 % 0 in
21:57 57.2 °F 47.1 °F 29.8 in SW 5 mph 12 mph 69 % 0 in
22:02 57.2 °F 47.5 °F 29.8 in WSW 4 mph 9 mph 70 % 0 in
22:07 57 °F 47.3 °F 29.8 in SW 3 mph 9 mph 70 % 0 in
22:12 56.8 °F 47.1 °F 29.8 in SW 5 mph 9 mph 70 % 0 in
22:22 56.8 °F 47.5 °F 29.8 in SW 5 mph 7 mph 71 % 0 in
22:27 56.7 °F 47.7 °F 29.8 in SSW 4 mph 9 mph 72 % 0 in
22:32 56.1 °F 47.7 °F 29.8 in SSW 3 mph 9 mph 73 % 0 in
22:42 55.2 °F 48.7 °F 29.8 in SW 3 mph 6 mph 79 % 0 in
22:52 54.9 °F 49.1 °F 29.8 in SW 4 mph 6 mph 81 % 0 in
23:12 55.4 °F 50.4 °F 29.8 in SSW 4 mph 8 mph 83 % 0 in
23:17 55.4 °F 50.4 °F 29.8 in SW 4 mph 9 mph 83 % 0 in
23:22 55.6 °F 50.5 °F 29.8 in WSW 3 mph 9 mph 83 % 0 in
23:27 55.4 °F 50.4 °F 29.8 in SSW 4 mph 9 mph 83 % 0 in
23:32 55.4 °F 50.7 °F 29.8 in SW 5 mph 8 mph 84 % 0 in
23:37 55.2 °F 50.5 °F 29.8 in SSW 3 mph 8 mph 84 % 0 in
23:42 55.2 °F 50.5 °F 29.8 in SW 4 mph 7 mph 84 % 0 in
23:47 55.2 °F 50.7 °F 29.8 in SW 3 mph 7 mph 85 % 0 in
23:52 55.2 °F 50.7 °F 29.8 in SW 4 mph 7 mph 85 % 0 in
23:57 55.2 °F 50.7 °F 29.8 in SW 4 mph 8 mph 85 % 0 in
Meteo18
Compliments of Weather Underground - 4 mb

Script developed by  Jim McMurry - jmcmurry@mwt.net Adapted for the template by  Wim van der Kuil - Leuven-Template.eu

You find our weather info also at:

European Weather Network

Weather Underground

Equipment we use:

Weather-station
Davis Vue

Weather-program
Meteohub

Weather-server
Raspberry PI 2 B+

Provider
1 and 1

Davis Vue

Meteohub

Raspberry PI 2 B+

1 and 1